Time;durP1;ratioP1;P1;durP2;ratioP2;P2;SDS_P1;SDS_P2;PMS_P1;PMS_P2;Temp;Humidity;BMP_temperature;BMP_pressure;BME280_temperature;BME280_humidity;BME280_pressure;Samples;Min_cycle;Max_cycle;Signal;HPM_P1;HPM_P2
2023/06/28 00:01:21;;;;;;;5.65;2.47;;;20.50;40.30;;;22.15;34.25;97809.28;4955009;29;20058;-61
2023/06/28 00:03:49;;;;;;;3.13;2.28;;;20.40;40.50;;;22.12;33.91;97816.00;4955099;28;20212;-60
2023/06/28 00:06:19;;;;;;;5.28;2.22;;;20.40;40.60;;;22.09;33.93;97810.19;4954293;28;20078;-59
2023/06/28 00:08:47;;;;;;;4.68;2.50;;;20.40;40.70;;;22.07;34.36;97813.13;4951732;29;20150;-60
2023/06/28 00:11:14;;;;;;;5.70;2.10;;;20.40;41.00;;;22.03;34.73;97803.81;4954828;28;20039;-60
2023/06/28 00:13:42;;;;;;;3.22;2.13;;;20.40;40.90;;;22.01;34.35;97812.16;4954906;29;20051;-60
2023/06/28 00:16:09;;;;;;;4.22;2.30;;;20.40;41.10;;;22.01;34.63;97811.34;4954414;28;20082;-60
2023/06/28 00:18:37;;;;;;;3.13;2.25;;;20.40;41.20;;;22.02;34.28;97813.00;4954310;28;20058;-59
2023/06/28 00:21:05;;;;;;;7.18;2.35;;;20.40;41.30;;;22.03;34.87;97815.47;4954586;28;20058;-59
2023/06/28 00:23:33;;;;;;;6.55;3.42;;;20.30;41.30;;;22.04;34.66;97813.59;4953050;28;20039;-59
2023/06/28 00:26:00;;;;;;;5.07;2.53;;;20.40;41.20;;;22.03;34.89;97814.66;4953623;28;20058;-59
2023/06/28 00:28:28;;;;;;;3.70;2.08;;;20.30;41.30;;;22.00;34.68;97818.66;4952851;28;20058;-59
2023/06/28 00:30:56;;;;;;;3.38;2.15;;;20.30;41.30;;;22.00;34.77;97828.66;4952645;29;20063;-60
2023/06/28 00:33:24;;;;;;;3.13;2.42;;;20.30;41.40;;;21.95;34.82;97820.41;4954443;28;20031;-60
2023/06/28 00:35:52;;;;;;;5.68;2.42;;;20.20;41.50;;;21.94;34.71;97818.75;4952862;29;20043;-59
2023/06/28 00:38:20;;;;;;;4.32;2.40;;;20.20;41.90;;;21.92;34.80;97831.69;4936106;29;20183;-60
2023/06/28 00:40:48;;;;;;;2.75;1.98;;;20.20;42.10;;;21.91;35.05;97827.34;4952496;29;20487;-59
2023/06/28 00:43:16;;;;;;;6.13;2.33;;;20.20;42.10;;;21.89;35.26;97824.88;4954083;29;20059;-60
2023/06/28 00:45:44;;;;;;;3.72;2.50;;;20.10;42.30;;;21.86;35.42;97822.59;4954210;29;20058;-60
2023/06/28 00:48:12;;;;;;;4.25;2.28;;;20.10;42.50;;;21.86;35.19;97830.72;4952378;28;20114;-60
2023/06/28 00:50:40;;;;;;;6.03;2.78;;;20.20;42.40;;;21.87;35.82;97832.41;4920888;29;20050;-60
2023/06/28 00:53:08;;;;;;;4.95;2.25;;;20.20;42.40;;;21.89;35.46;97832.16;4953856;29;20039;-59
2023/06/28 00:55:35;;;;;;;4.03;2.58;;;20.20;42.20;;;21.91;35.23;97835.47;4936452;29;20138;-60
2023/06/28 00:58:04;;;;;;;2.75;2.22;;;20.20;41.90;;;21.91;35.05;97839.00;4952037;29;20055;-60
2023/06/28 01:00:31;;;;;;;5.80;2.78;;;20.20;41.70;;;21.88;34.84;97834.03;4936659;29;20043;-59
2023/06/28 01:03:00;;;;;;;7.63;2.53;;;20.20;41.60;;;21.82;35.21;97840.38;4953949;28;20427;-60
2023/06/28 01:05:29;;;;;;;5.45;2.90;;;20.10;41.90;;;21.78;35.16;97844.59;4953755;29;20043;-60
2023/06/28 01:07:57;;;;;;;3.30;2.00;;;20.10;42.20;;;21.76;35.31;97844.81;4966289;28;20070;-60
2023/06/28 01:10:26;;;;;;;7.70;2.38;;;20.10;42.60;;;21.76;35.71;97847.53;4972374;28;20047;-60
2023/06/28 01:12:55;;;;;;;4.18;2.20;;;20.10;43.00;;;21.77;35.85;97851.06;4970987;28;20062;-60
2023/06/28 01:15:22;;;;;;;6.53;2.60;;;20.10;43.20;;;21.77;35.72;97851.91;4939137;28;20498;-60
2023/06/28 01:17:50;;;;;;;5.63;2.25;;;20.10;42.90;;;21.75;35.91;97850.47;4971456;28;20053;-60
2023/06/28 01:20:18;;;;;;;5.40;2.47;;;20.20;42.60;;;21.74;35.62;97848.81;4955436;28;20062;-59
2023/06/28 01:22:55;;;;;;;4.82;2.08;;;20.20;42.80;;;21.76;35.84;97850.25;4972932;28;20499;-59
2023/06/28 01:25:23;;;;;;;4.38;1.85;;;20.20;43.50;;;21.78;36.28;97852.72;4955694;28;20051;-59
2023/06/28 01:27:51;;;;;;;4.82;2.55;;;20.20;43.00;;;21.77;35.87;97845.66;4954875;28;20506;-60
2023/06/28 01:30:23;;;;;;;5.80;2.10;;;20.20;43.20;;;21.80;35.78;97850.63;4970612;28;20510;-59
2023/06/28 01:32:51;;;;;;;5.28;2.17;;;20.20;42.90;;;21.77;36.74;97846.50;4955409;28;20050;-60
2023/06/28 01:35:20;;;;;;;4.40;2.10;;;20.20;44.10;;;21.77;36.37;97851.06;4972164;28;20035;-59
2023/06/28 01:37:51;;;;;;;4.93;2.60;;;20.20;44.80;;;21.73;36.81;97839.88;4954780;28;20049;-59
2023/06/28 01:40:20;;;;;;;5.32;2.72;;;20.10;44.10;;;21.73;36.70;97850.72;4955108;28;20050;-60
2023/06/28 01:42:47;;;;;;;4.65;2.83;;;20.10;44.30;;;21.71;36.58;97841.13;4955789;28;20414;-59
2023/06/28 01:45:15;;;;;;;6.38;2.35;;;20.00;44.40;;;21.70;36.63;97843.03;4971712;28;20049;-60
2023/06/28 01:47:43;;;;;;;6.57;2.45;;;20.10;44.50;;;21.69;37.00;97845.97;4972429;28;20049;-60
2023/06/28 01:50:15;;;;;;;4.78;2.60;;;20.00;44.70;;;21.68;37.54;97852.44;4972017;28;20406;-60
2023/06/28 01:52:43;;;;;;;2.55;2.35;;;20.00;45.20;;;21.67;37.10;97842.66;4970694;28;20046;-60
2023/06/28 01:55:11;;;;;;;4.68;2.33;;;20.00;44.80;;;21.66;37.05;97844.53;4955384;28;20047;-60
2023/06/28 01:57:39;;;;;;;4.20;2.85;;;20.00;44.70;;;21.63;37.11;97842.28;4954196;28;20043;-60
2023/06/28 02:00:08;;;;;;;5.13;2.13;;;19.90;44.70;;;21.60;36.95;97842.75;4972233;28;20410;-60
2023/06/28 02:02:50;;;;;;;3.57;2.40;;;19.90;44.80;;;21.60;37.00;97837.34;4971095;28;20073;-60
2023/06/28 02:05:18;;;;;;;3.83;2.35;;;19.90;44.70;;;21.57;36.85;97833.19;4962850;28;20525;-60
2023/06/28 02:07:46;;;;;;;5.88;2.17;;;19.80;44.70;;;21.52;37.06;97835.75;4972174;28;20039;-60
2023/06/28 02:10:17;;;;;;;4.63;2.75;;;19.80;44.80;;;21.50;36.78;97832.44;4954599;28;20058;-60
2023/06/28 02:12:45;;;;;;;5.68;2.20;;;19.80;44.70;;;21.51;36.78;97827.84;4971922;28;20065;-60
2023/06/28 02:15:14;;;;;;;4.13;2.70;;;19.80;44.80;;;21.49;37.00;97835.38;4972166;28;20058;-60
2023/06/28 02:17:42;;;;;;;7.63;2.58;;;19.80;44.90;;;21.45;36.87;97831.47;4971089;28;20396;-60
2023/06/28 02:20:10;;;;;;;5.03;2.63;;;19.70;45.00;;;21.42;36.96;97827.28;4970502;28;20038;-60
2023/06/28 02:22:40;;;;;;;3.20;2.47;;;19.70;45.10;;;21.42;36.99;97827.28;4962645;28;20054;-60
2023/06/28 02:25:08;;;;;;;5.45;2.90;;;19.70;45.10;;;21.43;37.18;97834.38;4959345;28;20055;-59
2023/06/28 02:27:36;;;;;;;5.35;2.60;;;19.80;45.10;;;21.45;37.28;97826.06;4953606;28;20426;-60
2023/06/28 02:30:04;;;;;;;5.05;2.40;;;19.80;44.90;;;21.45;37.23;97821.47;4971402;28;20043;-60
2023/06/28 02:32:32;;;;;;;4.40;2.78;;;19.80;44.90;;;21.47;37.10;97830.19;4954175;28;20055;-60
2023/06/28 02:34:59;;;;;;;4.57;2.42;;;19.80;44.90;;;21.48;37.32;97822.88;4962378;28;20502;-60
2023/06/28 02:37:27;;;;;;;5.95;2.65;;;19.80;44.80;;;21.48;37.25;97831.00;4971786;28;20299;-60
2023/06/28 02:39:55;;;;;;;2.75;2.38;;;19.80;44.80;;;21.47;37.54;97834.78;4972110;28;20521;-60
2023/06/28 02:42:22;;;;;;;4.88;2.05;;;19.70;45.70;;;21.46;37.96;97828.53;4972328;28;20525;-60
2023/06/28 02:44:50;;;;;;;6.63;2.50;;;19.70;46.80;;;21.46;38.51;97830.41;4971522;28;20521;-60
2023/06/28 02:47:18;;;;;;;3.63;2.60;;;19.70;47.70;;;21.46;38.63;97836.66;4938207;28;20047;-60
2023/06/28 02:49:45;;;;;;;8.15;2.58;;;19.70;47.90;;;21.43;38.79;97821.69;4957793;28;20051;-60
2023/06/28 02:52:13;;;;;;;2.92;2.03;;;19.70;48.30;;;21.41;38.72;97829.19;4973834;28;20047;-60
2023/06/28 02:54:41;;;;;;;4.88;2.42;;;19.60;48.20;;;21.38;39.13;97823.38;4957928;28;20050;-60
2023/06/28 02:57:10;;;;;;;6.30;2.90;;;19.60;48.50;;;21.37;38.88;97824.44;4965874;28;20451;-60
2023/06/28 02:59:52;;;;;;;5.38;2.33;;;19.60;48.40;;;21.35;39.03;97819.25;4959310;28;20042;-60
2023/06/28 03:02:20;;;;;;;4.82;2.47;;;19.50;48.50;;;21.33;38.77;97824.06;4965631;28;20051;-60
2023/06/28 03:04:48;;;;;;;4.25;2.80;;;19.50;48.30;;;21.32;38.96;97827.81;4974070;28;20284;-60
2023/06/28 03:07:18;;;;;;;4.43;2.40;;;19.50;48.10;;;21.30;39.25;97818.28;4965423;28;20054;-60
2023/06/28 03:09:46;;;;;;;5.50;2.70;;;19.50;48.30;;;21.28;38.72;97823.91;4947835;28;20405;-60
2023/06/28 03:12:14;;;;;;;3.55;2.35;;;19.50;48.10;;;21.28;39.18;97823.09;4975218;28;20039;-60
2023/06/28 03:14:43;;;;;;;2.60;2.15;;;19.50;48.40;;;21.24;39.32;97823.53;4975468;28;20050;-60
2023/06/28 03:17:11;;;;;;;3.70;2.15;;;19.40;48.70;;;21.23;39.36;97824.59;4965596;28;20046;-60
2023/06/28 03:19:40;;;;;;;7.85;2.65;;;19.40;48.70;;;21.22;38.68;97827.53;4973894;28;20395;-59
2023/06/28 03:22:08;;;;;;;4.45;2.60;;;19.40;48.20;;;21.21;38.91;97826.69;4957523;28;20047;-60
2023/06/28 03:24:35;;;;;;;5.60;2.65;;;19.40;47.90;;;21.18;38.78;97824.44;4965190;28;20066;-60
2023/06/28 03:27:03;;;;;;;4.18;3.10;;;19.40;47.50;;;21.19;38.55;97826.09;4941315;28;20051;-60
2023/06/28 03:29:31;;;;;;;3.78;2.40;;;19.40;47.90;;;21.21;38.20;97831.31;4965056;28;20043;-60
2023/06/28 03:31:58;;;;;;;4.45;2.53;;;19.50;46.80;;;21.22;38.51;97831.06;4973640;28;20045;-60
2023/06/28 03:34:26;;;;;;;3.25;2.45;;;19.50;46.90;;;21.22;38.54;97824.81;4973801;28;20047;-60
2023/06/28 03:36:54;;;;;;;5.55;2.33;;;19.50;47.00;;;21.20;38.48;97825.03;4973628;28;20054;-60
2023/06/28 03:39:31;;;;;;;6.93;2.65;;;19.50;47.20;;;21.18;38.71;97819.03;4972917;28;20043;-60
2023/06/28 03:41:59;;;;;;;6.63;3.78;;;19.40;47.50;;;21.16;38.51;97817.59;4956835;28;20426;-60
2023/06/28 03:44:27;;;;;;;3.35;2.60;;;19.30;47.70;;;21.15;39.09;97818.63;4972522;28;20051;-60
2023/06/28 03:46:55;;;;;;;4.80;3.00;;;19.30;48.30;;;21.11;38.97;97820.16;4973400;28;20089;-60
2023/06/28 03:49:23;;;;;;;7.70;3.38;;;19.20;48.50;;;21.07;39.15;97822.47;4964447;28;20046;-60
2023/06/28 03:51:51;;;;;;;3.55;2.83;;;19.20;48.70;;;21.04;39.08;97821.03;4957365;28;20045;-60
2023/06/28 03:54:18;;;;;;;3.42;2.20;;;19.20;48.70;;;21.05;39.13;97824.56;4974155;28;20041;-60
2023/06/28 03:56:49;;;;;;;9.30;2.97;;;19.20;48.50;;;21.07;39.20;97818.94;4966288;28;20486;-60
2023/06/28 03:59:18;;;;;;;4.18;2.65;;;19.30;48.30;;;21.09;38.92;97820.38;4964406;28;20043;-60
2023/06/28 04:01:45;;;;;;;3.67;2.72;;;19.30;48.00;;;21.10;38.81;97815.78;4974328;28;20046;-60
2023/06/28 04:04:16;;;;;;;6.68;2.55;;;19.30;48.10;;;21.10;38.97;97819.31;4974411;28;20050;-60
2023/06/28 04:06:45;;;;;;;3.63;2.88;;;19.30;48.10;;;21.10;38.81;97823.91;4973921;28;20051;-59
2023/06/28 04:09:12;;;;;;;6.55;2.80;;;19.30;48.20;;;21.10;39.00;97827.44;4973849;28;20043;-60
2023/06/28 04:11:40;;;;;;;3.88;2.60;;;19.30;48.20;;;21.10;39.00;97824.72;4973987;28;20502;-60
2023/06/28 04:14:08;;;;;;;3.75;2.20;;;19.30;48.10;;;21.12;39.10;97832.63;4955880;28;20422;-60
2023/06/28 04:16:35;;;;;;;5.05;2.95;;;19.30;48.00;;;21.14;38.72;97827.81;4973766;28;20050;-60
2023/06/28 04:19:05;;;;;;;3.90;2.72;;;19.40;47.70;;;21.12;38.79;97830.75;4973470;28;20047;-60
2023/06/28 04:21:33;;;;;;;5.68;2.90;;;19.40;48.50;;;21.13;39.15;97832.41;4973960;28;20046;-60
2023/06/28 04:24:02;;;;;;;5.28;2.47;;;19.40;47.70;;;21.13;39.06;97828.88;4973970;28;20053;-60
2023/06/28 04:26:29;;;;;;;5.05;3.00;;;19.40;47.90;;;21.08;39.13;97826.84;4973592;28;20047;-60
2023/06/28 04:28:57;;;;;;;4.80;2.85;;;19.30;48.20;;;21.06;39.44;97828.13;4973351;28;20050;-59
2023/06/28 04:31:25;;;;;;;3.92;2.58;;;19.30;47.90;;;21.08;39.20;97831.44;4974328;28;20046;-59
2023/06/28 04:33:55;;;;;;;4.40;2.50;;;19.40;48.00;;;21.08;39.05;97836.84;4965946;28;20038;-59
2023/06/28 04:36:25;;;;;;;5.10;2.45;;;19.40;47.70;;;21.08;38.65;97836.84;4952789;29;20047;-60
2023/06/28 04:38:54;;;;;;;3.75;2.28;;;19.40;47.40;;;21.06;39.34;97841.66;4973439;28;20417;-59
2023/06/28 04:41:25;;;;;;;3.55;2.60;;;19.40;48.90;;;21.01;39.62;97850.44;4973377;28;20035;-59
2023/06/28 04:43:55;;;;;;;4.15;2.75;;;19.40;48.80;;;20.98;39.92;97848.19;4956687;28;20042;-59
2023/06/28 04:46:26;;;;;;;3.30;2.47;;;19.30;49.00;;;20.98;39.80;97850.91;4973504;28;20047;-59
2023/06/28 04:48:56;;;;;;;5.07;2.50;;;19.30;48.80;;;20.98;39.57;97850.91;4965038;28;20050;-59
2023/06/28 04:51:24;;;;;;;5.00;3.10;;;19.30;48.70;;;20.98;39.41;97843.59;4973292;28;20053;-59
2023/06/28 04:53:52;;;;;;;3.22;2.55;;;19.30;48.40;;;20.97;39.36;97846.53;4972048;28;20035;-59
2023/06/28 04:56:20;;;;;;;3.78;2.30;;;19.30;48.20;;;20.99;39.63;97847.13;4956063;28;20413;-60
2023/06/28 04:58:47;;;;;;;4.90;2.80;;;19.30;48.40;;;21.02;39.67;97849.41;4971525;28;20047;-59
2023/06/28 05:01:15;;;;;;;4.10;2.60;;;19.40;48.50;;;21.02;39.88;97839.38;4973321;28;20053;-59
2023/06/28 05:03:46;;;;;;;4.90;2.50;;;19.40;48.50;;;20.96;40.10;97847.59;4955938;28;20062;-60
2023/06/28 05:06:14;;;;;;;4.18;3.03;;;19.20;49.20;;;20.92;39.83;97849.06;4972899;28;20050;-59
2023/06/28 05:08:41;;;;;;;9.02;3.10;;;19.20;49.50;;;20.92;39.89;97846.34;4972726;28;20054;-59
2023/06/28 05:11:09;;;;;;;5.43;2.60;;;19.10;49.40;;;20.93;40.20;97843.44;4972486;28;20046;-60
2023/06/28 05:13:39;;;;;;;3.22;2.30;;;19.20;49.50;;;20.96;39.84;97845.69;4972924;28;20043;-59
2023/06/28 05:16:06;;;;;;;6.95;3.60;;;19.20;49.10;;;21.00;39.60;97843.38;4963801;28;20047;-59
2023/06/28 05:18:34;;;;;;;4.80;2.50;;;19.30;48.90;;;21.03;39.61;97838.34;4972231;28;20049;-59
2023/06/28 05:21:02;;;;;;;6.43;2.72;;;19.40;48.90;;;21.08;39.61;97844.97;4973164;28;20062;-59
2023/06/28 05:23:29;;;;;;;3.85;2.38;;;19.40;48.60;;;21.12;39.41;97838.06;4970793;28;20157;-59
2023/06/28 05:25:57;;;;;;;3.75;2.33;;;19.40;48.40;;;21.16;39.61;97840.06;4964862;28;20050;-59
2023/06/28 05:28:25;;;;;;;3.28;2.40;;;19.50;48.30;;;21.18;39.07;97835.25;4972262;28;20055;-60
2023/06/28 05:30:53;;;;;;;3.85;2.03;;;19.50;48.10;;;21.22;39.38;97839.16;4963596;28;20047;-59
2023/06/28 05:33:21;;;;;;;7.32;2.45;;;19.60;47.90;;;21.26;39.36;97841.44;4972624;28;20034;-59
2023/06/28 05:35:49;;;;;;;2.97;2.38;;;19.60;47.80;;;21.29;38.92;97847.25;4972644;28;20053;-59
2023/06/28 05:38:16;;;;;;;3.80;2.50;;;19.60;47.60;;;21.31;39.00;97842.44;4955226;28;20124;-59
2023/06/28 05:40:44;;;;;;;4.40;2.95;;;19.70;47.70;;;21.34;38.86;97841.13;4972261;28;20414;-59
2023/06/28 05:43:12;;;;;;;4.53;2.45;;;19.70;47.50;;;21.35;38.96;97850.94;4972488;28;20073;-59
2023/06/28 05:45:39;;;;;;;3.13;2.33;;;19.70;47.50;;;;;;4972396;28;20050;-60
2023/06/28 05:48:07;;;;;;;5.15;2.47;;;19.70;47.10;;;21.40;38.59;97842.94;4972298;28;20094;-63
2023/06/28 05:50:35;;;;;;;6.05;2.33;;;19.70;47.10;;;21.43;39.13;97837.94;4972044;28;20042;-65
2023/06/28 05:53:06;;;;;;;3.40;2.40;;;19.80;47.90;;;21.47;39.80;97832.91;4964114;28;20047;-63
2023/06/28 05:55:34;;;;;;;5.00;2.38;;;19.90;48.70;;;21.50;39.69;97840.59;4971973;28;20039;-65
2023/06/28 05:58:01;;;;;;;3.60;2.42;;;19.90;49.10;;;21.53;39.87;97842.81;4972236;28;20517;-65
2023/06/28 06:00:29;;;;;;;4.68;2.40;;;19.90;48.80;;;21.57;40.16;97843.19;4972230;28;20517;-64
2023/06/28 06:02:57;;;;;;;3.95;2.60;;;19.90;49.10;;;21.61;39.33;97842.50;4972380;28;20046;-63
2023/06/28 06:05:24;;;;;;;6.00;2.70;;;19.90;48.50;;;21.62;39.63;97846.88;4972087;28;20049;-64
2023/06/28 06:07:52;;;;;;;4.93;2.70;;;20.00;47.90;;;21.62;39.42;97843.34;4972329;28;20050;-63
2023/06/28 06:10:20;;;;;;;3.95;2.60;;;20.00;47.60;;;21.65;39.20;97851.00;4968141;28;20043;-63
2023/06/28 06:12:47;;;;;;;4.78;2.65;;;20.00;47.70;;;21.65;39.24;97845.59;4972121;28;20047;-63
2023/06/28 06:15:15;;;;;;;4.47;2.30;;;20.00;47.90;;;21.64;39.23;97846.66;4972326;28;20043;-62
2023/06/28 06:17:42;;;;;;;5.78;2.80;;;20.00;48.30;;;21.57;38.92;97844.00;4971780;28;20047;-65
2023/06/28 06:20:11;;;;;;;4.68;2.30;;;19.90;47.60;;;21.53;38.93;97840.09;4962850;28;20039;-62
2023/06/28 06:22:38;;;;;;;5.38;2.47;;;19.90;47.90;;;21.49;39.18;97836.19;4974637;28;20065;-63
2023/06/28 06:25:06;;;;;;;4.43;2.78;;;19.80;48.00;;;21.48;39.39;97834.56;4975914;28;20506;-62
2023/06/28 06:27:35;;;;;;;5.63;2.42;;;19.80;48.00;;;21.51;38.98;97846.81;4975637;28;20046;-63
2023/06/28 06:30:04;;;;;;;4.72;2.70;;;19.90;47.80;;;21.49;39.24;97843.50;4967604;28;20058;-62
2023/06/28 06:32:32;;;;;;;4.13;2.80;;;19.90;47.70;;;21.52;39.24;97838.47;4975852;28;20039;-62
2023/06/28 06:35:00;;;;;;;12.25;3.25;;;19.90;47.30;;;21.55;39.26;97846.13;4975880;28;20042;-64
2023/06/28 06:37:28;;;;;;;7.03;2.53;;;20.00;47.50;;;21.59;39.23;97843.78;4975871;28;20047;-64
2023/06/28 06:39:55;;;;;;;10.60;2.72;;;20.00;47.30;;;21.68;38.93;97849.75;4975124;28;20054;-64
2023/06/28 06:42:23;;;;;;;7.63;2.70;;;20.10;47.10;;;21.72;38.60;97851.75;4975848;28;20065;-63
2023/06/28 06:44:51;;;;;;;6.43;2.67;;;20.20;47.00;;;21.76;38.81;97846.72;4957440;28;20046;-61
2023/06/28 06:47:19;;;;;;;4.05;2.47;;;20.20;46.70;;;21.76;38.88;97850.25;4992189;28;20425;-65
2023/06/28 06:49:46;;;;;;;5.30;2.45;;;20.20;46.80;;;21.83;38.70;97855.59;4976873;28;20058;-63
2023/06/28 06:52:14;;;;;;;4.32;2.15;;;20.30;45.80;;;21.82;38.05;97856.63;4975566;28;20051;-64
2023/06/28 06:54:42;;;;;;;4.57;2.22;;;20.30;45.80;;;21.83;37.51;97864.53;4981567;28;20051;-65
2023/06/28 06:57:09;;;;;;;3.67;2.03;;;20.30;44.40;;;21.86;37.52;97852.41;4981315;28;20050;-62
2023/06/28 06:59:37;;;;;;;5.78;3.00;;;20.30;44.50;;;21.85;37.50;97853.47;4975275;28;20070;-59
2023/06/28 07:02:05;;;;;;;4.63;3.10;;;20.30;45.20;;;21.88;37.43;97850.28;4967297;28;20049;-60
2023/06/28 07:04:33;;;;;;;4.55;2.50;;;20.30;45.40;;;21.81;37.50;97855.81;4975324;28;20042;-59
2023/06/28 07:07:00;;;;;;;4.15;2.88;;;20.30;45.30;;;21.80;37.74;97858.75;4975018;28;20042;-59
2023/06/28 07:09:28;;;;;;;3.28;2.20;;;20.20;45.60;;;21.81;38.25;97855.00;4974872;28;20043;-59
2023/06/28 07:11:56;;;;;;;3.78;2.20;;;20.20;45.80;;;21.86;37.91;97860.53;4974913;28;20521;-59
2023/06/28 07:14:23;;;;;;;2.95;2.30;;;20.30;45.40;;;21.89;37.58;97861.97;4974780;28;20441;-59
2023/06/28 07:16:51;;;;;;;6.97;2.35;;;20.30;45.00;;;21.92;37.22;97870.47;4974693;28;20502;-58
2023/06/28 07:19:19;;;;;;;6.95;3.28;;;20.40;44.50;;;21.94;37.26;97865.63;4974822;28;20046;-58
2023/06/28 07:21:46;;;;;;;7.15;2.35;;;20.40;44.10;;;22.00;37.31;97856.63;4965652;28;20074;-59
2023/06/28 07:24:14;;;;;;;5.38;2.75;;;20.50;44.20;;;22.11;36.79;97863.13;4975064;28;20057;-58
2023/06/28 07:26:42;;;;;;;4.72;2.42;;;20.60;43.40;;;22.12;36.72;97862.06;4974043;28;20053;-58
2023/06/28 07:29:09;;;;;;;6.53;2.40;;;20.60;43.70;;;22.10;36.47;97871.47;4974538;28;20058;-57
2023/06/28 07:31:37;;;;;;;2.47;1.83;;;20.60;43.50;;;22.14;36.41;97869.97;4974865;28;20135;-58
2023/06/28 07:34:06;;;;;;;4.00;2.30;;;20.60;43.20;;;22.21;36.19;97870.69;4974063;28;20439;-58
2023/06/28 07:36:33;;;;;;;4.78;2.50;;;20.70;42.90;;;22.22;36.23;97875.06;4974590;28;20039;-60
2023/06/28 07:39:01;;;;;;;3.95;2.67;;;20.70;43.10;;;22.18;36.05;97871.19;4974214;28;20046;-58
2023/06/28 07:41:28;;;;;;;3.22;2.20;;;20.70;43.00;;;22.21;36.20;97870.69;4974619;28;20495;-52
2023/06/28 07:43:56;;;;;;;3.15;2.28;;;20.70;42.70;;;22.22;35.97;97869.66;4974358;28;20058;-58
2023/06/28 07:46:25;;;;;;;2.22;1.88;;;20.70;42.70;;;22.25;36.26;97877.34;4974427;28;20050;-58
2023/06/28 07:48:53;;;;;;;5.32;2.47;;;20.80;43.30;;;22.30;36.56;97871.25;4973842;28;20047;-58
2023/06/28 07:51:20;;;;;;;5.47;2.80;;;20.80;43.50;;;22.35;36.25;97871.34;4973865;28;20047;-58
2023/06/28 07:53:48;;;;;;;4.18;2.33;;;20.90;43.10;;;22.41;36.39;97867.72;4974370;28;20074;-58
2023/06/28 07:56:16;;;;;;;5.85;2.85;;;21.00;42.70;;;22.49;36.02;97869.28;4974091;28;20494;-59
2023/06/28 07:58:44;;;;;;;6.05;2.33;;;21.00;42.40;;;22.55;35.98;97862.94;4973846;28;20051;-59
2023/06/28 08:01:11;;;;;;;5.43;2.30;;;21.10;42.40;;;22.65;35.60;97868.59;4965278;28;20498;-60
2023/06/28 08:03:39;;;;;;;4.47;2.33;;;21.20;42.00;;;22.72;35.31;97873.91;4974333;28;20498;-59
2023/06/28 08:06:07;;;;;;;5.35;2.58;;;21.30;41.50;;;22.70;35.38;97870.63;4974170;28;20051;-58
2023/06/28 08:08:34;;;;;;;4.82;2.40;;;21.20;41.60;;;22.78;35.08;97867.56;4956838;28;20043;-58
2023/06/28 08:11:02;;;;;;;4.30;2.53;;;21.20;41.40;;;22.85;35.22;97857.41;4973890;28;20054;-57
2023/06/28 08:13:29;;;;;;;4.05;2.30;;;21.30;41.30;;;22.91;34.67;97855.66;4974093;28;20038;-58
2023/06/28 08:15:57;;;;;;;4.00;2.45;;;21.30;41.00;;;22.93;34.89;97854.34;4973985;28;20042;-57
2023/06/28 08:18:25;;;;;;;4.93;2.70;;;21.30;41.40;;;23.00;35.02;97860.50;4972830;28;20043;-58
2023/06/28 08:20:53;;;;;;;3.80;2.33;;;21.50;41.40;;;23.11;34.58;97855.31;4973672;28;20043;-59
2023/06/28 08:23:21;;;;;;;4.28;2.53;;;21.60;40.70;;;23.04;34.67;97854.63;4973722;28;20050;-57
2023/06/28 08:25:49;;;;;;;2.85;2.22;;;21.50;40.60;;;23.12;34.51;97856.97;4973551;28;20046;-59
2023/06/28 08:28:16;;;;;;;3.42;2.30;;;21.50;40.80;;;23.17;34.50;97863.34;4973685;28;20113;-59
2023/06/28 08:30:44;;;;;;;4.53;2.55;;;21.60;40.70;;;23.23;34.46;97858.88;4973224;28;20055;-59
2023/06/28 08:33:12;;;;;;;4.75;2.40;;;21.70;40.80;;;23.23;33.77;97856.16;4973508;28;20054;-59
2023/06/28 08:35:39;;;;;;;4.32;2.50;;;21.70;39.60;;;23.26;34.73;97858.38;4973759;28;20053;-59
2023/06/28 08:38:08;;;;;;;3.95;2.35;;;21.70;40.60;;;23.32;33.86;97860.16;4973911;28;20467;-58
2023/06/28 08:40:35;;;;;;;4.32;2.20;;;21.90;39.90;;;23.37;33.42;97862.97;4974100;28;20057;-59
2023/06/28 08:43:04;;;;;;;4.88;2.45;;;21.90;38.70;;;23.42;33.14;97859.56;4973292;28;20047;-61
2023/06/28 08:45:33;;;;;;;4.22;2.33;;;22.00;38.10;;;23.43;32.99;97858.47;4955287;28;20471;-61
2023/06/28 08:48:03;;;;;;;5.28;2.30;;;21.90;38.40;;;23.49;32.52;97853.97;4956444;28;20047;-60
2023/06/28 08:50:48;;;;;;;3.80;2.45;;;22.00;37.90;;;23.53;32.27;97855.97;4958585;28;20047;-60
2023/06/28 08:53:19;;;;;;;6.47;2.70;;;22.00;37.60;;;23.59;32.67;97859.63;4956258;28;20489;-60
2023/06/28 08:55:48;;;;;;;4.13;3.00;;;22.00;37.80;;;23.62;32.65;97861.06;4973177;28;20046;-60
2023/06/28 08:58:16;;;;;;;5.35;2.50;;;22.00;38.30;;;23.60;32.75;97861.28;4955887;28;20042;-63
2023/06/28 09:00:45;;;;;;;3.35;2.22;;;22.00;38.40;;;23.67;32.67;97859.28;4972949;28;20046;-60
2023/06/28 09:03:15;;;;;;;5.30;2.50;;;22.10;38.50;;;23.72;32.82;97863.97;4971819;28;20495;-60
2023/06/28 09:05:44;;;;;;;4.20;2.90;;;22.30;38.10;;;23.74;32.93;97862.66;4972806;28;20062;-61
2023/06/28 09:08:19;;;;;;;4.18;2.55;;;22.40;38.00;;;23.82;32.85;97849.78;5067970;28;20442;-61
2023/06/28 09:10:49;;;;;;;3.92;2.53;;;22.50;38.10;;;23.84;32.60;97858.53;5046310;28;20398;-61
2023/06/28 09:13:19;;;;;;;5.35;2.53;;;22.40;37.70;;;23.81;32.43;97850.84;5045972;28;20045;-61
2023/06/28 09:15:48;;;;;;;3.53;2.33;;;22.30;38.10;;;23.86;32.11;97856.41;5047876;28;20060;-61
2023/06/28 09:18:15;;;;;;;3.67;1.92;;;22.30;37.30;;;23.89;32.31;97850.50;5047487;28;20029;-61
2023/06/28 09:20:51;;;;;;;3.47;3.00;;;22.40;37.50;;;23.92;32.95;97849.97;5047543;28;20465;-61
2023/06/28 09:23:27;;;;;;;3.15;2.00;;;22.40;37.70;;;23.88;33.00;97852.34;5047514;28;20037;-61
2023/06/28 09:25:55;;;;;;;6.03;3.08;;;22.50;38.20;;;23.87;32.64;97849.91;5026328;28;20052;-60
2023/06/28 09:28:32;;;;;;;4.57;2.25;;;22.60;38.00;;;23.92;33.07;97858.13;5044395;28;20037;-60
2023/06/28 09:31:01;;;;;;;3.38;2.63;;;22.60;38.10;;;23.95;32.79;97849.50;5061202;28;20041;-61
2023/06/28 09:33:30;;;;;;;6.53;2.72;;;22.60;37.90;;;23.85;32.31;97844.69;5046984;28;20037;-61
2023/06/28 09:35:59;;;;;;;4.47;2.70;;;22.50;36.70;;;23.78;32.83;97841.28;5045398;28;20041;-61
2023/06/28 09:38:27;;;;;;;4.75;2.35;;;22.40;38.00;;;23.76;32.74;97849.66;5046594;28;20041;-61
2023/06/28 09:41:00;;;;;;;6.72;2.80;;;22.40;37.90;;;23.71;32.74;97840.56;5046607;28;20056;-60
2023/06/28 09:43:34;;;;;;;4.32;2.67;;;22.40;38.00;;;23.69;32.82;97843.56;5038452;28;20053;-62
2023/06/28 09:46:13;;;;;;;5.13;2.50;;;22.40;37.50;;;23.63;32.79;97841.78;5044733;28;20075;-61
2023/06/28 09:48:48;;;;;;;3.97;2.20;;;22.30;37.70;;;23.57;32.88;97851.72;5046809;28;20052;-61
2023/06/28 09:51:17;;;;;;;15.50;5.20;;;22.20;38.20;;;23.50;32.68;97851.03;5047337;28;20104;-60
2023/06/28 09:53:53;;;;;;;4.10;2.70;;;22.10;37.90;;;23.33;32.50;97848.22;5047512;28;20041;-61
2023/06/28 09:56:34;;;;;;;6.82;2.50;;;22.00;38.40;;;23.31;32.82;97835.94;5047508;28;20037;-62
2023/06/28 09:59:07;;;;;;;4.03;2.40;;;21.80;37.90;;;23.43;32.83;97844.06;5046908;28;20041;-62
2023/06/28 10:01:41;;;;;;;5.55;2.33;;;22.00;37.80;;;23.47;32.50;97842.53;5047427;28;20041;-62
2023/06/28 10:04:12;;;;;;;6.38;3.10;;;22.00;37.60;;;23.48;32.85;97838.75;5047253;28;20045;-62
2023/06/28 10:06:43;;;;;;;4.65;2.28;;;22.10;38.10;;;23.55;33.07;97842.16;5046049;28;20045;-63
2023/06/28 10:09:16;;;;;;;3.83;2.33;;;22.20;38.10;;;23.68;32.93;97835.63;5045390;28;20048;-63
2023/06/28 10:11:47;;;;;;;3.17;2.60;;;22.40;37.80;;;23.77;32.65;97843.16;5047255;28;20034;-63
2023/06/28 10:14:17;;;;;;;4.18;2.80;;;22.40;37.50;;;23.86;32.78;97832.75;5045260;28;20108;-63
2023/06/28 10:16:46;;;;;;;4.45;2.15;;;22.60;37.90;;;23.90;32.55;97822.22;5045779;28;20045;-63
2023/06/28 10:19:14;;;;;;;3.60;2.15;;;22.60;37.60;;;23.96;32.60;97818.53;5036045;28;20433;-63
2023/06/28 10:21:42;;;;;;;4.90;2.67;;;22.70;37.60;;;24.00;32.47;97817.00;5032610;28;20811;-63
2023/06/28 10:24:10;;;;;;;8.15;2.47;;;22.70;37.00;;;24.04;32.51;97828.19;5032177;28;20049;-63
2023/06/28 10:26:39;;;;;;;2.90;2.45;;;22.70;38.30;;;24.04;32.32;97829.03;5033372;28;20045;-63